Terminal Aerodrome Forecast
Issued by NWS

Home | Current Version | Previous Version | Text Only | Print | Product List | Glossary Off
Versions: 1 2 3 4 5 6 7 8 9 10 11 12 13 14 15 16 17 18

000
FTUS43 KBIS 061929 AAA
TAFJMS
TAF AMD
KJMS 061929Z 0619/0718 30034G42KT 1/4SM -SN BLSN SCT008 OVC011
     FM062200 30033G44KT 1/2SM BLSN VCSH OVC010
     FM070300 30025G35KT 2SM BLSN BKN020 OVC050=

USA.gov is the U.S. government's official web portal to all federal, state and local government web resources and services.